Time;durP1;ratioP1;P1;durP2;ratioP2;P2;SDS_P1;SDS_P2;PMS_P1;PMS_P2;Temp;Humidity;BMP_temperature;BMP_pressure;BME280_temperature;BME280_humidity;BME280_pressure;Samples;Min_cycle;Max_cycle;Signal;HPM_P1;HPM_P2
2021/12/29 00:00:37;;;;;;;15.57;5.73;;;9.80;99.90;;;;;;5038180;28;20236;-71
2021/12/29 00:03:04;;;;;;;12.77;5.10;;;9.80;99.90;;;;;;5042315;28;20627;-70
2021/12/29 00:05:31;;;;;;;15.53;6.03;;;9.90;99.90;;;;;;5044441;28;20267;-71
2021/12/29 00:07:58;;;;;;;15.73;6.23;;;9.90;99.90;;;;;;5043309;28;20207;-71
2021/12/29 00:10:26;;;;;;;16.77;5.40;;;10.00;99.90;;;;;;5046939;28;20228;-71
2021/12/29 00:12:55;;;;;;;16.10;5.70;;;9.90;99.90;;;;;;5047993;28;20623;-74
2021/12/29 00:15:25;;;;;;;19.23;8.47;;;9.90;99.90;;;;;;5039844;28;20689;-71
2021/12/29 00:17:53;;;;;;;17.03;6.10;;;10.00;99.90;;;;;;5049126;28;20207;-70
2021/12/29 00:20:22;;;;;;;16.37;5.83;;;10.00;99.90;;;;;;5045667;28;20239;-71
2021/12/29 00:22:49;;;;;;;20.17;7.47;;;10.00;99.90;;;;;;5046104;28;20208;-71
2021/12/29 00:25:16;;;;;;;17.50;6.60;;;10.00;99.90;;;;;;5047675;28;20216;-71
2021/12/29 00:27:43;;;;;;;17.50;6.47;;;10.00;99.90;;;;;;5047105;28;20589;-71
2021/12/29 00:30:14;;;;;;;21.80;7.80;;;10.00;99.90;;;;;;5046373;28;20244;-70
2021/12/29 00:32:56;;;;;;;17.83;6.60;;;10.10;99.90;;;;;;5047820;28;20680;-71
2021/12/29 00:35:43;;;;;;;21.43;9.20;;;10.10;99.90;;;;;;5046763;28;20216;-71
2021/12/29 00:38:28;;;;;;;23.63;10.30;;;10.10;99.90;;;;;;5047458;28;20239;-70
2021/12/29 00:41:15;;;;;;;25.10;10.33;;;10.10;99.90;;;;;;5042727;28;20241;-70
2021/12/29 00:43:51;;;;;;;19.67;7.33;;;10.10;99.90;;;;;;5047441;28;20702;-71
2021/12/29 00:46:45;;;;;;;19.20;7.77;;;10.10;99.90;;;;;;5047806;28;20748;-72
2021/12/29 00:49:12;;;;;;;18.10;8.13;;;10.10;99.90;;;;;;5049897;28;20216;-72
2021/12/29 00:51:39;;;;;;;20.70;7.80;;;10.10;99.90;;;;;;5051418;28;20309;-70
2021/12/29 00:54:06;;;;;;;20.20;8.17;;;10.00;99.90;;;;;;5035298;28;20218;-69
2021/12/29 00:56:33;;;;;;;15.90;5.87;;;10.00;99.90;;;;;;5053628;28;20205;-70
2021/12/29 00:59:00;;;;;;;15.47;6.57;;;10.00;99.90;;;;;;5046176;28;20215;-71
2021/12/29 01:01:29;;;;;;;16.00;5.33;;;10.00;99.90;;;;;;5045438;28;20617;-71
2021/12/29 01:03:57;;;;;;;16.97;6.03;;;10.00;99.90;;;;;;5048039;28;20695;-71
2021/12/29 01:06:24;;;;;;;18.53;6.63;;;10.10;99.90;;;;;;5031225;28;20243;-69
2021/12/29 01:08:51;;;;;;;15.83;5.93;;;10.10;99.90;;;;;;5043203;28;20462;-70
2021/12/29 01:11:18;;;;;;;18.97;5.97;;;10.10;99.90;;;;;;5045581;28;20755;-71
2021/12/29 01:13:48;;;;;;;15.00;5.70;;;10.10;99.90;;;;;;5047500;28;20219;-70
2021/12/29 01:16:36;;;;;;;18.30;5.70;;;10.10;99.90;;;;;;5048206;28;20231;-70
2021/12/29 01:19:10;;;;;;;15.13;5.23;;;10.10;99.90;;;;;;5048029;28;20205;-70
2021/12/29 01:21:39;;;;;;;14.63;5.10;;;10.10;99.90;;;;;;5040968;28;20235;-69
2021/12/29 01:24:07;;;;;;;18.43;6.20;;;10.10;99.90;;;;;;5043304;28;20595;-68
2021/12/29 01:26:35;;;;;;;18.00;6.70;;;10.10;99.90;;;;;;5047283;28;20247;-68
2021/12/29 01:29:02;;;;;;;17.40;6.20;;;10.10;99.90;;;;;;5041679;28;20203;-69
2021/12/29 01:31:29;;;;;;;16.23;5.77;;;10.10;99.90;;;;;;5043703;28;20232;-70
2021/12/29 01:33:56;;;;;;;15.40;5.50;;;10.10;99.90;;;;;;5041528;28;20214;-70
2021/12/29 01:36:24;;;;;;;15.40;5.50;;;10.10;99.90;;;;;;5039656;28;20208;-69
2021/12/29 01:38:51;;;;;;;16.27;5.60;;;10.10;99.90;;;;;;5039957;28;20212;-70
2021/12/29 01:41:18;;;;;;;15.10;5.77;;;10.10;99.90;;;;;;5044351;28;20717;-70
2021/12/29 01:43:45;;;;;;;15.77;5.90;;;10.10;99.90;;;;;;5039612;28;20205;-71
2021/12/29 01:46:12;;;;;;;15.00;5.17;;;10.10;99.90;;;;;;5046005;28;21012;-71
2021/12/29 01:48:39;;;;;;;19.23;8.00;;;10.20;99.90;;;;;;5045637;28;20208;-70
2021/12/29 01:51:06;;;;;;;35.17;7.00;;;10.20;99.90;;;;;;5043919;28;20235;-70
2021/12/29 01:53:35;;;;;;;16.53;6.43;;;10.20;99.90;;;;;;5042538;28;20599;-70
2021/12/29 01:56:03;;;;;;;17.43;6.40;;;10.20;99.90;;;;;;5046397;28;20467;-70
2021/12/29 01:58:30;;;;;;;13.90;5.57;;;10.10;99.90;;;;;;5046516;28;20208;-70
2021/12/29 02:00:59;;;;;;;19.20;7.63;;;10.20;99.90;;;;;;5036642;28;20229;-70
2021/12/29 02:03:27;;;;;;;15.13;6.40;;;10.20;99.90;;;;;;5046440;28;20215;-70
2021/12/29 02:05:54;;;;;;;15.70;5.87;;;10.20;99.90;;;;;;5045319;28;20223;-69
2021/12/29 02:08:23;;;;;;;16.93;6.63;;;10.10;99.90;;;;;;5041142;28;20688;-69
2021/12/29 02:10:55;;;;;;;15.33;6.60;;;10.10;99.90;;;;;;5045116;28;20795;-69
2021/12/29 02:13:23;;;;;;;19.23;6.33;;;10.20;99.90;;;;;;5043972;28;20681;-69
2021/12/29 02:15:50;;;;;;;14.37;5.53;;;10.20;99.90;;;;;;5029497;28;20556;-69
2021/12/29 02:18:20;;;;;;;17.00;6.50;;;10.10;99.90;;;;;;5046515;28;20220;-70
2021/12/29 02:20:53;;;;;;;15.83;5.70;;;10.10;99.90;;;;;;5043512;28;20340;-70
2021/12/29 02:23:26;;;;;;;17.20;6.20;;;10.10;99.90;;;;;;5045359;28;20285;-70
2021/12/29 02:25:56;;;;;;;14.40;5.10;;;10.10;99.90;;;;;;5044859;28;20232;-70
2021/12/29 02:28:27;;;;;;;16.77;6.40;;;10.20;99.90;;;;;;5044662;28;20300;-70
2021/12/29 02:30:55;;;;;;;19.93;6.70;;;10.20;99.90;;;;;;5043798;28;20251;-70
2021/12/29 02:33:24;;;;;;;15.13;5.73;;;10.10;99.90;;;;;;5043011;28;20220;-70
2021/12/29 02:35:53;;;;;;;15.80;5.63;;;10.10;99.90;;;;;;5045245;28;20216;-70
2021/12/29 02:38:22;;;;;;;15.57;5.83;;;10.10;99.90;;;;;;5044784;28;20213;-70
2021/12/29 02:40:52;;;;;;;17.10;5.87;;;10.10;99.90;;;;;;5045297;28;20331;-70
2021/12/29 02:43:21;;;;;;;17.33;6.47;;;10.10;99.90;;;;;;5044507;28;20262;-70
2021/12/29 02:45:51;;;;;;;14.00;5.03;;;10.10;99.90;;;;;;5044867;28;20211;-70
2021/12/29 02:48:20;;;;;;;16.30;6.43;;;10.10;99.90;;;;;;5042295;28;20204;-70
2021/12/29 02:50:47;;;;;;;16.07;5.40;;;10.10;99.90;;;;;;5046453;28;20291;-69
2021/12/29 02:53:15;;;;;;;17.70;6.37;;;10.10;99.90;;;;;;5045401;28;20216;-69
2021/12/29 02:55:42;;;;;;;16.00;5.63;;;10.10;99.90;;;;;;5043822;28;20218;-68
2021/12/29 02:58:09;;;;;;;16.80;6.30;;;10.10;99.90;;;;;;5043454;28;20742;-68
2021/12/29 03:00:36;;;;;;;17.03;6.37;;;10.10;99.90;;;;;;5045269;28;20233;-68
2021/12/29 03:03:03;;;;;;;16.10;5.80;;;10.10;99.90;;;;;;5045639;28;20201;-68
2021/12/29 03:05:30;;;;;;;18.03;5.67;;;10.10;99.90;;;;;;5045608;28;20583;-70
2021/12/29 03:07:58;;;;;;;20.67;7.43;;;9.90;99.90;;;;;;5045336;28;20224;-68
2021/12/29 03:10:27;;;;;;;20.57;7.47;;;10.00;99.90;;;;;;5045954;28;20480;-68
2021/12/29 03:12:54;;;;;;;17.40;7.10;;;9.90;99.90;;;;;;5046856;28;20215;-69
2021/12/29 03:15:21;;;;;;;16.37;6.03;;;9.90;99.90;;;;;;5042989;28;20216;-69
2021/12/29 03:17:48;;;;;;;16.90;7.30;;;9.90;99.90;;;;;;5043403;28;20211;-68
2021/12/29 03:20:15;;;;;;;17.67;7.33;;;9.80;99.90;;;;;;5044400;28;20259;-69
2021/12/29 03:22:42;;;;;;;19.23;7.30;;;9.80;99.90;;;;;;5046001;28;20215;-69
2021/12/29 03:25:09;;;;;;;19.53;7.87;;;9.80;99.90;;;;;;5044931;28;20216;-68
2021/12/29 03:27:37;;;;;;;21.80;8.87;;;9.90;99.90;;;;;;5043052;28;20712;-68
2021/12/29 03:30:05;;;;;;;19.97;7.63;;;9.90;99.90;;;;;;5027949;28;20651;-69
2021/12/29 03:32:41;;;;;;;20.33;7.47;;;9.90;99.90;;;;;;5027339;28;20732;-69
2021/12/29 03:35:09;;;;;;;15.37;5.40;;;9.90;99.90;;;;;;5050653;28;20208;-69
2021/12/29 03:37:36;;;;;;;19.53;7.77;;;9.90;99.90;;;;;;5044928;28;20293;-69
2021/12/29 03:40:05;;;;;;;19.90;8.40;;;9.90;99.90;;;;;;5043915;28;20231;-69
2021/12/29 03:42:32;;;;;;;19.97;7.87;;;9.90;99.90;;;;;;5044261;28;20224;-69
2021/12/29 03:45:00;;;;;;;18.37;6.93;;;9.90;99.90;;;;;;5045059;28;20239;-69
2021/12/29 03:47:28;;;;;;;17.00;7.57;;;9.90;99.90;;;;;;5044723;28;20228;-69
2021/12/29 03:49:55;;;;;;;18.57;7.57;;;10.00;99.90;;;;;;5044263;28;20209;-68
2021/12/29 03:52:22;;;;;;;20.33;8.17;;;10.00;99.90;;;;;;5044414;28;20693;-68
2021/12/29 03:54:49;;;;;;;23.10;10.50;;;10.00;99.90;;;;;;5028371;28;20209;-70
2021/12/29 03:57:16;;;;;;;22.63;9.30;;;10.00;99.90;;;;;;5044163;28;20208;-70
2021/12/29 03:59:42;;;;;;;20.10;7.63;;;10.00;99.90;;;;;;5044162;28;20212;-70
2021/12/29 04:02:11;;;;;;;22.93;8.33;;;10.00;99.90;;;;;;5044327;28;20211;-69
2021/12/29 04:04:38;;;;;;;18.77;7.70;;;10.00;99.90;;;;;;5041888;28;20196;-69
2021/12/29 04:07:04;;;;;;;20.50;8.23;;;10.00;99.90;;;;;;5043156;28;20231;-70
2021/12/29 04:09:31;;;;;;;19.37;8.50;;;10.00;99.90;;;;;;5042649;28;20216;-70
2021/12/29 04:11:58;;;;;;;23.90;9.63;;;10.00;99.90;;;;;;5044258;28;20277;-69
2021/12/29 04:14:26;;;;;;;19.43;8.50;;;10.00;99.90;;;;;;5041876;28;20662;-70
2021/12/29 04:16:54;;;;;;;20.00;8.20;;;10.00;99.90;;;;;;5037621;28;20288;-70
2021/12/29 04:19:40;;;;;;;22.93;10.13;;;10.00;99.90;;;;;;5041359;28;20639;-70
2021/12/29 04:22:08;;;;;;;21.50;9.80;;;10.10;99.90;;;;;;5040534;28;20228;-70
2021/12/29 04:24:36;;;;;;;19.63;8.57;;;10.00;99.90;;;;;;5044152;28;20232;-71
2021/12/29 04:27:05;;;;;;;25.27;11.23;;;10.00;99.90;;;;;;5044577;28;20224;-70
2021/12/29 04:29:33;;;;;;;24.33;9.33;;;10.00;99.90;;;;;;5042353;28;20221;-70
2021/12/29 04:31:59;;;;;;;22.93;9.90;;;10.00;99.90;;;;;;5043716;28;20264;-70
2021/12/29 04:34:28;;;;;;;24.90;10.40;;;10.10;99.90;;;;;;5044194;28;20211;-70
2021/12/29 04:36:55;;;;;;;29.93;11.20;;;10.00;99.90;;;;;;5040933;28;20193;-70
2021/12/29 04:39:21;;;;;;;22.83;10.40;;;10.00;99.90;;;;;;5043557;28;20330;-70
2021/12/29 04:41:48;;;;;;;18.13;7.77;;;10.00;99.90;;;;;;5040306;28;20243;-70
2021/12/29 04:44:15;;;;;;;19.53;7.37;;;10.00;99.90;;;;;;5043574;28;20653;-69
2021/12/29 04:46:46;;;;;;;17.07;6.83;;;10.00;99.90;;;;;;5046245;28;20233;-70
2021/12/29 04:49:21;;;;;;;16.67;6.90;;;10.00;99.90;;;;;;5040746;28;20245;-70
2021/12/29 04:51:55;;;;;;;14.93;5.27;;;9.90;99.90;;;;;;5043295;28;20249;-71
2021/12/29 04:54:22;;;;;;;14.47;4.97;;;9.90;99.90;;;;;;5043097;28;20209;-70
2021/12/29 04:56:49;;;;;;;19.57;6.00;;;9.80;99.90;;;;;;5042019;28;20222;-70
2021/12/29 04:59:16;;;;;;;16.43;6.80;;;9.80;99.90;;;;;;5047039;28;20216;-70
2021/12/29 05:01:44;;;;;;;14.03;5.43;;;9.80;99.90;;;;;;5042617;28;20623;-70
2021/12/29 05:04:19;;;;;;;15.90;6.77;;;9.80;99.90;;;;;;5042807;28;20699;-70
2021/12/29 05:09:31;;;;;;;17.97;7.97;;;9.70;99.90;;;;;;5048189;28;20205;-70
2021/12/29 05:12:01;;;;;;;16.83;7.30;;;9.60;99.90;;;;;;5029849;28;20781;-71
2021/12/29 05:14:28;;;;;;;16.37;6.53;;;9.60;99.90;;;;;;5045948;28;20211;-70
2021/12/29 05:16:55;;;;;;;18.93;7.47;;;9.60;99.90;;;;;;5046782;28;20233;-70
2021/12/29 05:19:22;;;;;;;16.60;6.67;;;9.50;99.90;;;;;;5046867;28;20208;-70
2021/12/29 05:21:49;;;;;;;13.73;5.17;;;9.50;99.90;;;;;;5049403;28;20245;-70
2021/12/29 05:24:15;;;;;;;17.23;7.57;;;9.50;99.90;;;;;;5046063;28;20629;-70
2021/12/29 05:26:44;;;;;;;12.77;4.40;;;9.40;99.90;;;;;;5028859;28;20224;-70
2021/12/29 05:29:11;;;;;;;15.43;5.33;;;9.40;99.90;;;;;;5044446;28;20212;-70
2021/12/29 05:31:38;;;;;;;16.43;5.33;;;9.30;99.90;;;;;;5047100;28;20247;-70
2021/12/29 05:34:05;;;;;;;12.33;5.30;;;9.30;99.90;;;;;;5046235;28;20895;-69
2021/12/29 05:36:32;;;;;;;24.70;9.63;;;9.30;99.90;;;;;;5045845;28;20668;-70
2021/12/29 05:38:59;;;;;;;22.07;9.17;;;9.30;99.90;;;;;;5046649;28;20211;-70
2021/12/29 05:41:26;;;;;;;28.10;12.97;;;9.30;99.90;;;;;;5046220;28;20239;-70
2021/12/29 05:43:54;;;;;;;33.70;14.73;;;9.30;99.90;;;;;;5046227;28;20207;-70
2021/12/29 05:46:21;;;;;;;28.83;13.00;;;9.30;99.90;;;;;;5045729;28;20215;-70
2021/12/29 05:48:48;;;;;;;31.83;14.20;;;9.30;99.90;;;;;;5046686;28;20230;-70
2021/12/29 05:51:15;;;;;;;27.93;12.67;;;9.30;99.90;;;;;;5048046;28;20231;-70
2021/12/29 05:53:43;;;;;;;27.37;12.80;;;9.30;99.90;;;;;;5044973;28;20204;-70
2021/12/29 05:56:10;;;;;;;37.43;17.57;;;9.30;99.90;;;;;;5045117;28;20291;-70
2021/12/29 05:58:38;;;;;;;28.70;11.70;;;9.30;99.90;;;;;;5046122;28;20297;-70
2021/12/29 06:01:06;;;;;;;43.90;18.57;;;9.30;99.90;;;;;;5043955;28;20319;-70
2021/12/29 06:03:33;;;;;;;50.23;22.73;;;9.30;99.90;;;;;;5046385;28;20217;-70
2021/12/29 06:06:00;;;;;;;47.03;21.17;;;9.30;99.90;;;;;;5045602;28;20284;-70
2021/12/29 06:08:27;;;;;;;43.90;20.17;;;9.30;99.90;;;;;;5047908;28;20236;-70
2021/12/29 06:10:54;;;;;;;30.90;14.20;;;9.30;99.90;;;;;;5028557;28;20242;-71
2021/12/29 06:13:22;;;;;;;39.03;18.00;;;9.30;99.90;;;;;;5046634;28;20220;-70
2021/12/29 06:15:49;;;;;;;51.73;22.60;;;9.30;99.90;;;;;;5045997;28;20681;-70
2021/12/29 06:18:17;;;;;;;49.60;21.27;;;9.30;99.90;;;;;;5045071;28;20313;-70
2021/12/29 06:20:44;;;;;;;46.63;22.73;;;9.30;99.90;;;;;;5044188;28;20602;-70
2021/12/29 06:23:12;;;;;;;47.27;22.40;;;9.30;99.90;;;;;;5041491;28;20209;-70
2021/12/29 06:25:39;;;;;;;44.23;20.87;;;9.30;99.90;;;;;;5045315;28;20398;-70
2021/12/29 06:28:07;;;;;;;50.87;23.20;;;9.30;99.90;;;;;;5027173;28;20856;-70
2021/12/29 06:30:34;;;;;;;41.07;18.57;;;9.30;99.90;;;;;;5045667;28;20230;-69
2021/12/29 06:33:01;;;;;;;48.43;21.77;;;9.30;99.90;;;;;;5044624;28;20229;-69
2021/12/29 06:35:29;;;;;;;38.90;16.63;;;9.30;99.90;;;;;;5042559;28;20691;-69
2021/12/29 06:37:56;;;;;;;41.60;19.63;;;9.30;99.90;;;;;;5043277;28;20212;-70
2021/12/29 06:40:23;;;;;;;45.13;19.10;;;9.30;99.90;;;;;;5045156;28;20584;-70
2021/12/29 06:42:50;;;;;;;38.27;17.30;;;9.40;99.90;;;;;;5046711;28;20216;-71
2021/12/29 06:45:17;;;;;;;38.07;17.27;;;9.40;99.90;;;;;;5040744;28;20225;-71
2021/12/29 06:47:43;;;;;;;44.27;20.43;;;9.40;99.90;;;;;;5041693;28;20608;-70
2021/12/29 06:50:11;;;;;;;47.43;20.00;;;9.40;99.90;;;;;;5045001;28;20928;-69
2021/12/29 06:52:39;;;;;;;35.20;15.73;;;9.40;99.90;;;;;;5045271;28;20210;-69
2021/12/29 06:55:07;;;;;;;41.53;18.57;;;9.40;99.90;;;;;;5042703;28;20214;-69
2021/12/29 06:57:34;;;;;;;54.03;22.57;;;9.40;99.90;;;;;;5042596;28;20256;-69
2021/12/29 07:00:01;;;;;;;51.00;22.13;;;9.40;99.90;;;;;;5042315;28;20279;-69
2021/12/29 07:02:28;;;;;;;52.17;21.67;;;9.40;99.90;;;;;;5041031;28;20207;-69
2021/12/29 07:04:55;;;;;;;56.87;24.07;;;9.40;99.90;;;;;;5041024;28;20218;-69
2021/12/29 07:07:22;;;;;;;48.87;20.07;;;9.40;99.90;;;;;;5040247;28;20218;-69
2021/12/29 07:09:50;;;;;;;48.63;22.07;;;9.40;99.90;;;;;;5045236;28;20696;-69
2021/12/29 07:12:19;;;;;;;57.27;23.30;;;9.40;99.90;;;;;;5028170;28;20217;-70
2021/12/29 07:14:46;;;;;;;49.37;22.10;;;9.40;99.90;;;;;;5043766;28;20211;-69
2021/12/29 07:17:13;;;;;;;53.33;23.70;;;9.40;99.90;;;;;;5046286;28;20207;-70
2021/12/29 07:19:40;;;;;;;51.10;21.17;;;9.40;99.90;;;;;;5038045;28;20229;-70
2021/12/29 07:22:07;;;;;;;48.87;20.63;;;9.40;99.90;;;;;;5042230;28;20745;-69
2021/12/29 07:24:35;;;;;;;53.93;21.47;;;9.40;99.90;;;;;;5028026;28;20222;-69
2021/12/29 07:27:03;;;;;;;63.23;22.80;;;9.40;99.90;;;;;;5043026;28;20229;-69
2021/12/29 07:29:30;;;;;;;53.83;21.40;;;9.50;99.90;;;;;;5038889;28;20558;-69
2021/12/29 07:31:58;;;;;;;48.90;19.37;;;9.50;99.90;;;;;;5044079;28;20231;-69
2021/12/29 07:34:26;;;;;;;44.73;20.47;;;9.50;99.90;;;;;;5045053;28;20276;-70
2021/12/29 07:36:53;;;;;;;45.03;18.03;;;9.50;99.90;;;;;;5041992;28;20219;-69
2021/12/29 07:39:21;;;;;;;51.60;20.30;;;9.50;99.90;;;;;;5043893;28;20206;-69
2021/12/29 07:41:48;;;;;;;54.23;23.27;;;9.60;99.90;;;;;;5046654;28;20253;-69
2021/12/29 07:44:23;;;;;;;60.07;23.33;;;9.60;99.90;;;;;;5027894;28;20247;-70
2021/12/29 07:46:54;;;;;;;49.40;19.63;;;9.60;99.90;;;;;;5047882;28;20216;-69
2021/12/29 07:49:21;;;;;;;59.70;24.17;;;9.60;99.90;;;;;;5043628;28;20224;-70
2021/12/29 07:51:49;;;;;;;46.30;20.53;;;10.00;99.90;;;;;;5045879;28;20652;-70
2021/12/29 07:54:16;;;;;;;44.07;19.87;;;9.60;99.90;;;;;;5044397;28;20290;-70
2021/12/29 07:56:44;;;;;;;38.53;17.03;;;9.60;99.90;;;;;;5043699;28;20661;-70
2021/12/29 07:59:11;;;;;;;50.93;22.17;;;9.70;99.90;;;;;;5043466;28;20211;-70
2021/12/29 08:01:40;;;;;;;49.33;20.70;;;9.70;99.90;;;;;;5042723;28;20223;-70
2021/12/29 08:04:07;;;;;;;56.67;23.67;;;9.70;99.90;;;;;;5043319;28;20722;-70
2021/12/29 08:06:34;;;;;;;57.63;23.60;;;9.80;99.90;;;;;;5025800;28;20476;-70
2021/12/29 08:09:01;;;;;;;51.17;21.00;;;9.80;99.90;;;;;;5043229;28;20486;-71
2021/12/29 08:11:28;;;;;;;52.33;21.30;;;9.80;99.90;;;;;;5044049;28;20254;-70
2021/12/29 08:13:55;;;;;;;49.37;20.87;;;9.80;99.90;;;;;;5038523;28;20208;-70
2021/12/29 08:16:22;;;;;;;35.73;15.27;;;9.80;99.90;;;;;;5044123;28;20218;-70
2021/12/29 08:18:50;;;;;;;54.20;23.17;;;9.80;99.90;;;;;;5043761;28;20212;-70
2021/12/29 08:21:17;;;;;;;42.17;18.00;;;9.80;99.90;;;;;;5037796;28;20235;-70
2021/12/29 08:23:44;;;;;;;41.97;18.53;;;9.90;99.90;;;;;;5037947;28;20705;-70
2021/12/29 08:26:11;;;;;;;43.93;19.97;;;9.90;99.90;;;;;;5038364;28;20211;-70
2021/12/29 08:28:37;;;;;;;49.00;20.63;;;9.90;99.90;;;;;;5044379;28;20228;-70
2021/12/29 08:31:05;;;;;;;42.63;16.50;;;10.00;99.90;;;;;;5029438;28;20244;-70
2021/12/29 08:33:33;;;;;;;40.83;16.43;;;10.00;99.90;;;;;;5046250;28;20479;-71
2021/12/29 08:36:01;;;;;;;33.03;15.33;;;10.00;99.90;;;;;;5029097;28;20289;-70
2021/12/29 08:38:28;;;;;;;34.63;13.37;;;10.00;99.90;;;;;;5044514;28;20219;-70
2021/12/29 08:40:55;;;;;;;40.43;17.13;;;10.00;99.90;;;;;;5042985;28;20523;-70
2021/12/29 08:43:22;;;;;;;41.50;19.27;;;10.10;99.90;;;;;;5038833;28;20243;-70
2021/12/29 08:45:49;;;;;;;49.37;21.17;;;10.10;99.90;;;;;;5044586;28;20208;-70
2021/12/29 08:48:16;;;;;;;40.67;17.10;;;10.10;99.90;;;;;;5041277;28;20228;-70
2021/12/29 08:50:46;;;;;;;39.87;17.77;;;10.20;99.90;;;;;;5041872;28;20249;-71
2021/12/29 08:53:15;;;;;;;36.00;14.73;;;10.20;99.90;;;;;;5046059;28;20323;-70
2021/12/29 08:55:46;;;;;;;30.20;13.30;;;10.20;99.90;;;;;;5035453;28;20215;-71
2021/12/29 08:58:14;;;;;;;41.33;16.30;;;10.30;99.90;;;;;;5039043;28;20209;-69
2021/12/29 09:00:41;;;;;;;32.77;13.17;;;10.30;99.90;;;;;;5041725;28;20228;-70
2021/12/29 09:03:08;;;;;;;25.10;11.23;;;10.30;99.90;;;;;;5039630;28;20220;-69
2021/12/29 09:05:35;;;;;;;37.70;15.27;;;10.30;99.90;;;;;;5045058;28;20213;-69
2021/12/29 09:08:02;;;;;;;31.70;13.27;;;10.30;99.90;;;;;;5050573;28;20287;-69
2021/12/29 09:10:30;;;;;;;34.40;14.27;;;10.40;99.90;;;;;;5028508;28;20233;-69
2021/12/29 09:12:57;;;;;;;26.73;11.00;;;10.50;99.90;;;;;;5045943;28;20211;-69
2021/12/29 09:15:25;;;;;;;33.60;13.33;;;10.50;99.90;;;;;;5046256;28;20642;-70
2021/12/29 09:17:53;;;;;;;35.97;13.77;;;10.60;99.90;;;;;;5046400;28;20233;-70
2021/12/29 09:20:26;;;;;;;35.90;15.40;;;10.70;99.90;;;;;;5044219;28;20234;-70
2021/12/29 09:22:55;;;;;;;35.40;16.10;;;10.70;99.90;;;;;;5027763;28;20217;-70
2021/12/29 09:25:24;;;;;;;34.80;15.67;;;10.80;99.90;;;;;;5042762;28;20270;-70
2021/12/29 09:27:52;;;;;;;33.53;13.87;;;10.90;99.90;;;;;;5046725;28;20586;-70
2021/12/29 09:30:20;;;;;;;27.27;13.13;;;11.00;99.90;;;;;;5045061;28;20240;-69
2021/12/29 09:32:47;;;;;;;35.10;15.13;;;11.10;99.90;;;;;;5045154;28;20205;-70
2021/12/29 09:35:16;;;;;;;32.67;13.53;;;11.20;99.90;;;;;;5045871;28;20220;-70
2021/12/29 09:37:44;;;;;;;29.03;12.07;;;11.20;99.90;;;;;;5047580;28;20201;-70
2021/12/29 09:40:11;;;;;;;25.73;11.53;;;11.20;99.90;;;;;;5028680;28;20239;-70
2021/12/29 09:42:38;;;;;;;24.93;10.83;;;11.30;99.90;;;;;;5044095;28;20209;-70
2021/12/29 09:45:09;;;;;;;27.60;11.47;;;11.30;99.90;;;;;;5044850;28;20209;-70
2021/12/29 09:47:36;;;;;;;29.57;11.80;;;11.30;99.90;;;;;;5038528;28;20210;-70
2021/12/29 09:50:08;;;;;;;24.97;11.60;;;11.40;99.90;;;;;;5046760;28;20236;-70
2021/12/29 09:52:35;;;;;;;24.93;11.10;;;11.40;99.90;;;;;;5039917;28;20614;-70
2021/12/29 09:55:04;;;;;;;29.80;10.43;;;11.40;99.90;;;;;;5040685;28;20209;-70
2021/12/29 09:57:32;;;;;;;23.27;10.47;;;11.40;99.90;;;;;;5040665;28;20650;-70
2021/12/29 09:59:59;;;;;;;24.43;10.47;;;11.50;99.90;;;;;;5028466;28;20953;-70
2021/12/29 10:02:28;;;;;;;25.97;10.47;;;11.50;99.90;;;;;;5043654;28;20516;-70
2021/12/29 10:04:56;;;;;;;25.27;10.53;;;11.50;99.90;;;;;;5045412;28;20213;-70
2021/12/29 10:07:23;;;;;;;24.37;10.50;;;11.50;99.90;;;;;;5046283;28;20213;-70
2021/12/29 10:09:51;;;;;;;21.60;9.97;;;11.50;99.90;;;;;;5041953;28;20235;-69
2021/12/29 10:12:20;;;;;;;21.70;10.17;;;11.50;99.90;;;;;;5046807;28;20619;-70
2021/12/29 10:14:49;;;;;;;19.30;9.60;;;11.50;99.90;;;;;;5045929;28;20213;-69
2021/12/29 10:17:16;;;;;;;18.40;8.80;;;11.50;99.90;;;;;;5045969;28;20585;-69
2021/12/29 10:19:45;;;;;;;18.60;9.00;;;11.60;99.90;;;;;;5047522;28;20228;-70
2021/12/29 10:22:21;;;;;;;23.73;9.30;;;11.60;99.90;;;;;;5046777;28;20811;-70
2021/12/29 10:24:48;;;;;;;20.97;8.73;;;11.60;99.90;;;;;;5045672;28;20209;-72
2021/12/29 10:27:19;;;;;;;22.73;9.30;;;11.60;99.90;;;;;;5045463;28;20217;-71
2021/12/29 10:29:46;;;;;;;20.20;8.77;;;11.50;99.90;;;;;;5046726;28;20866;-70
2021/12/29 10:32:23;;;;;;;20.17;8.53;;;11.50;99.90;;;;;;5048333;28;20212;-70
2021/12/29 10:34:53;;;;;;;20.60;8.87;;;11.50;99.90;;;;;;5046415;28;20296;-71
2021/12/29 10:37:23;;;;;;;23.53;9.30;;;11.60;99.90;;;;;;5045954;28;20213;-69
2021/12/29 10:39:52;;;;;;;25.90;9.23;;;11.60;99.90;;;;;;5042330;28;20205;-70
2021/12/29 10:42:22;;;;;;;22.73;8.37;;;11.70;99.90;;;;;;5038572;28;20772;-69
2021/12/29 10:44:51;;;;;;;19.90;8.43;;;11.90;99.90;;;;;;5047804;28;20212;-70
2021/12/29 10:47:21;;;;;;;17.83;7.53;;;12.10;99.90;;;;;;5044759;28;20223;-69
2021/12/29 10:49:54;;;;;;;18.93;7.20;;;12.30;99.90;;;;;;5045269;28;20721;-70
2021/12/29 10:52:36;;;;;;;17.43;7.30;;;12.50;99.90;;;;;;5045028;28;20228;-69
2021/12/29 10:55:06;;;;;;;15.37;7.50;;;12.70;99.90;;;;;;5044756;28;20205;-69
2021/12/29 10:57:33;;;;;;;17.60;7.30;;;12.90;99.90;;;;;;5034716;28;20198;-69
2021/12/29 11:00:02;;;;;;;;;;;13.00;99.90;;;;;;5045752;28;20329;-69
2021/12/29 11:02:30;;;;;;;;;;;13.00;99.90;;;;;;5043951;28;20003;-69
2021/12/29 11:04:58;;;;;;;;;;;13.10;99.90;;;;;;5043756;28;19979;-69
2021/12/29 11:07:26;;;;;;;;;;;13.10;99.90;;;;;;5043156;28;19924;-69
2021/12/29 11:09:53;;;;;;;;;;;13.00;99.90;;;;;;5043817;28;19978;-71
2021/12/29 11:12:20;;;;;;;;;;;13.10;99.90;;;;;;5026828;28;20286;-71
2021/12/29 11:14:52;;;;;;;;;;;13.10;99.90;;;;;;5037173;28;20465;-70
2021/12/29 11:17:23;;;;;;;;;;;13.00;99.90;;;;;;5043712;28;19921;-71
2021/12/29 11:19:51;;;;;;;;;;;12.90;99.90;;;;;;5047409;28;20323;-71
2021/12/29 11:22:20;;;;;;;;;;;12.80;99.90;;;;;;5046074;28;19946;-70
2021/12/29 11:24:53;;;;;;;;;;;12.80;99.90;;;;;;5046338;28;19924;-70
2021/12/29 11:27:20;;;;;;;;;;;13.00;99.90;;;;;;5045269;28;19925;-70
2021/12/29 11:29:51;;;;;;;;;;;12.80;99.90;;;;;;5042483;28;19920;-70
2021/12/29 11:32:25;;;;;;;;;;;12.70;99.90;;;;;;5041432;28;20330;-70
2021/12/29 11:35:09;;;;;;;;;;;12.70;99.90;;;;;;5026807;28;19929;-70
2021/12/29 11:37:38;;;;;;;;;;;12.60;99.90;;;;;;5038279;28;19920;-70
2021/12/29 11:40:06;;;;;;;;;;;12.60;99.90;;;;;;5026422;28;20298;-70
2021/12/29 11:42:33;;;;;;;;;;;12.60;99.90;;;;;;5045642;28;19924;-69
2021/12/29 11:45:00;;;;;;;;;;;12.60;99.90;;;;;;5044550;28;19921;-70
2021/12/29 11:47:27;;;;;;;;;;;12.50;99.90;;;;;;5037324;28;19986;-69
2021/12/29 11:49:54;;;;;;;;;;;12.60;99.90;;;;;;5045154;28;20313;-69
2021/12/29 11:52:35;;;;;;;;;;;12.50;99.90;;;;;;5044592;28;19935;-70
2021/12/29 11:55:12;;;;;;;;;;;12.50;99.90;;;;;;5042999;28;19947;-69
2021/12/29 12:00:11;;;;;;;;;;;12.50;99.90;;;;;;4956947;28;19934;-71
2021/12/29 12:02:39;;;;;;;27.50;7.90;;;12.50;99.90;;;;;;4962000;28;20042;-71
2021/12/29 12:05:06;;;;;;;;;;;12.50;99.90;;;;;;4960465;28;19934;-71
2021/12/29 12:07:33;;;;;;;;;;;12.50;99.90;;;;;;4942885;28;19934;-71
2021/12/29 12:10:07;;;;;;;;;;;12.40;99.90;;;;;;4922665;28;20427;-71
2021/12/29 12:12:36;;;;;;;;;;;12.40;99.90;;;;;;4943931;28;20029;-71
2021/12/29 12:15:04;;;;;;;;;;;12.40;99.90;;;;;;4943932;28;20403;-71
2021/12/29 12:17:30;;;;;;;;;;;12.50;99.90;;;;;;4924854;29;19942;-71
2021/12/29 12:20:01;;;;;;;;;;;12.40;99.90;;;;;;4943307;28;19942;-70
2021/12/29 12:22:28;;;;;;;;;;;12.30;99.90;;;;;;4938940;28;19946;-70
2021/12/29 12:24:59;;;;;;;;;;;12.30;99.90;;;;;;4944479;28;20367;-70
2021/12/29 12:27:27;;;;;;;;;;;12.20;99.90;;;;;;4942127;28;19935;-70
2021/12/29 12:30:02;;;;;;;;;;;12.10;99.90;;;;;;4938696;28;19934;-71
2021/12/29 12:32:28;;;;;;;;;;;12.10;99.90;;;;;;4920344;29;19926;-71
2021/12/29 12:34:57;;;;;;;29.87;7.93;;;12.00;99.90;;;;;;4939583;28;20080;-71
2021/12/29 12:37:32;;;;;;;31.30;8.43;;;12.00;99.90;;;;;;4938022;28;20666;-70
2021/12/29 12:40:02;;;;;;;28.77;8.60;;;11.90;99.90;;;;;;4935597;28;20254;-71
2021/12/29 12:42:30;;;;;;;24.90;7.63;;;11.90;99.90;;;;;;4938485;28;20212;-70
2021/12/29 12:44:58;;;;;;;27.97;8.87;;;11.80;99.90;;;;;;4939371;28;20221;-70
2021/12/29 12:47:31;;;;;;;31.50;8.87;;;11.80;99.90;;;;;;4938226;28;20209;-70
2021/12/29 12:50:01;;;;;;;28.63;8.47;;;11.80;99.90;;;;;;4936822;28;20268;-70
2021/12/29 12:52:39;;;;;;;32.95;9.15;;;10.50;99.90;;;;;;4921270;28;20263;-71
2021/12/29 12:55:09;;;;;;;35.60;9.03;;;11.80;99.90;;;;;;4936305;28;20071;-71
2021/12/29 12:57:39;;;;;;;;;;;11.80;99.90;;;;;;4935369;28;20713;-70
2021/12/29 13:00:09;;;;;;;;;;;11.80;99.90;;;;;;4938620;28;19937;-70